Time;durP1;ratioP1;P1;durP2;ratioP2;P2;SDS_P1;SDS_P2;PMS_P1;PMS_P2;Temp;Humidity;BMP_temperature;BMP_pressure;BME280_temperature;BME280_humidity;BME280_pressure;Samples;Min_cycle;Max_cycle;Signal;HPM_P1;HPM_P2
2023/02/18 00:01:14;;;;;;;2.33;2.10;;;;;;;12.67;72.57;96473.13;5060014;28;20499;-83
2023/02/18 00:03:40;;;;;;;2.97;2.07;;;;;;;12.67;72.31;96478.28;5063310;28;20695;-83
2023/02/18 00:06:12;;;;;;;2.93;2.27;;;;;;;12.62;73.01;96482.34;5061862;28;20296;-83
2023/02/18 00:08:38;;;;;;;2.97;2.67;;;;;;;12.63;73.10;96466.69;5067365;28;20236;-83
2023/02/18 00:11:07;;;;;;;2.50;2.30;;;;;;;12.57;73.04;96464.75;5047140;28;20233;-83
2023/02/18 00:13:33;;;;;;;2.30;2.10;;;;;;;12.63;73.14;96477.00;5046046;28;20222;-83
2023/02/18 00:16:01;;;;;;;3.73;2.00;;;;;;;12.62;73.32;96465.06;5062318;28;20236;-83
2023/02/18 00:18:28;;;;;;;3.47;2.30;;;;;;;12.61;73.26;96460.06;5057316;28;20194;-83
2023/02/18 00:20:54;;;;;;;2.97;2.30;;;;;;;12.66;73.05;96455.19;5054477;28;20296;-84
2023/02/18 00:23:21;;;;;;;2.70;2.20;;;;;;;12.67;73.07;96451.66;5053645;28;20217;-83
2023/02/18 00:25:47;;;;;;;2.30;2.10;;;;;;;12.63;73.19;96440.84;5053500;28;20592;-83
2023/02/18 00:28:15;;;;;;;3.40;2.23;;;;;;;12.62;73.09;96449.56;5036856;28;20202;-83
2023/02/18 00:30:42;;;;;;;2.83;2.10;;;;;;;12.56;73.78;96442.47;5034083;28;20238;-83
2023/02/18 00:33:09;;;;;;;2.40;2.20;;;;;;;12.62;73.53;96448.75;5049229;28;20259;-83
2023/02/18 00:35:35;;;;;;;2.83;1.97;;;;;;;12.54;73.81;96446.19;5053761;28;20251;-83
2023/02/18 00:38:02;;;;;;;3.33;2.30;;;;;;;12.59;73.82;96447.31;5052076;28;20197;-83
2023/02/18 00:40:28;;;;;;;2.87;1.90;;;;;;;12.59;73.38;96444.72;5049258;28;20221;-83
2023/02/18 00:42:55;;;;;;;3.63;2.20;;;;;;;12.50;74.08;96455.28;5049249;28;20221;-83
2023/02/18 00:45:22;;;;;;;2.90;2.07;;;;;;;12.52;74.02;96443.78;5052491;28;20233;-83
2023/02/18 00:47:49;;;;;;;2.37;2.17;;;;;;;12.54;73.66;96449.59;5033247;28;20209;-84
2023/02/18 00:50:15;;;;;;;2.60;2.00;;;;;;;12.51;74.07;96436.22;5034212;28;20233;-84
2023/02/18 00:52:42;;;;;;;2.37;2.17;;;;;;;12.52;74.29;96442.97;5048521;28;20846;-83
2023/02/18 00:55:08;;;;;;;2.87;2.00;;;;;;;12.47;74.29;96440.91;5044335;28;20226;-83
2023/02/18 00:57:34;;;;;;;2.20;1.93;;;;;;;12.49;74.19;96445.91;5051871;28;20194;-83
2023/02/18 01:00:01;;;;;;;2.13;1.90;;;;;;;12.37;75.19;96453.19;5053702;28;20236;-83
2023/02/18 01:02:29;;;;;;;1.97;1.87;;;;;;;12.41;75.26;96439.78;5035554;28;20463;-83
2023/02/18 01:04:55;;;;;;;3.13;1.93;;;;;;;12.38;75.48;96441.88;5041609;28;20228;-83
2023/02/18 01:07:21;;;;;;;2.83;1.67;;;;;;;12.35;75.29;96437.06;5057504;28;20224;-84
2023/02/18 01:09:48;;;;;;;2.10;1.80;;;;;;;12.30;76.21;96442.75;5032815;28;20244;-83
2023/02/18 01:12:14;;;;;;;2.67;1.83;;;;;;;12.32;76.11;96443.34;5039694;28;20259;-83
2023/02/18 01:14:41;;;;;;;2.20;1.90;;;;;;;12.32;76.42;96429.63;5056598;28;20782;-83
2023/02/18 01:17:07;;;;;;;2.73;1.80;;;;;;;12.36;76.18;96428.34;5053122;28;20264;-83
2023/02/18 01:19:35;;;;;;;1.90;1.63;;;;;;;12.34;76.54;96438.03;5041769;28;20236;-83
2023/02/18 01:22:02;;;;;;;3.03;2.07;;;;;;;12.35;76.49;96427.53;5039201;28;20229;-83
2023/02/18 01:24:28;;;;;;;1.67;1.57;;;;;;;12.35;76.41;96429.31;5056341;28;20204;-83
2023/02/18 01:26:54;;;;;;;2.07;1.87;;;;;;;12.36;76.59;96428.34;5055117;28;20197;-83
2023/02/18 01:29:21;;;;;;;1.70;1.60;;;;;;;12.36;76.56;96425.75;5035659;28;20202;-83
2023/02/18 01:31:47;;;;;;;2.80;1.80;;;;;;;12.37;76.65;96425.59;5044364;28;20197;-83
2023/02/18 01:34:14;;;;;;;2.90;2.07;;;;;;;12.36;76.84;96420.59;5055204;28;20300;-83
2023/02/18 01:36:42;;;;;;;2.40;1.83;;;;;;;12.32;77.04;96425.28;5043498;28;20257;-83
2023/02/18 01:39:08;;;;;;;2.63;1.60;;;;;;;12.30;77.13;96414.34;5036677;28;20201;-83
2023/02/18 01:41:35;;;;;;;2.13;1.83;;;;;;;12.35;76.93;96417.19;5054476;28;20251;-83
2023/02/18 01:44:12;;;;;;;2.97;1.90;;;;;;;12.34;76.97;96422.53;5030483;28;20447;-83
2023/02/18 01:46:38;;;;;;;2.07;1.83;;;;;;;12.36;77.09;96426.56;5035500;28;20217;-83
2023/02/18 01:49:06;;;;;;;2.67;1.93;;;;;;;12.27;77.71;96421.59;5054379;28;20236;-83
2023/02/18 01:51:37;;;;;;;3.17;1.83;;;;;;;12.25;78.02;96428.72;5045033;28;20226;-83
2023/02/18 01:54:09;;;;;;;2.30;2.10;;;;;;;12.23;78.37;96422.91;5058841;28;20232;-83
2023/02/18 01:56:39;;;;;;;2.40;1.90;;;;;;;12.21;78.62;96409.34;5024044;28;20225;-83
2023/02/18 01:59:09;;;;;;;2.67;2.20;;;;;;;12.21;79.03;96409.34;5056200;28;20203;-83
2023/02/18 02:01:36;;;;;;;2.70;2.20;;;;;;;12.19;79.40;96411.28;5054722;28;20224;-83
2023/02/18 02:04:02;;;;;;;3.53;2.30;;;;;;;12.14;79.60;96409.19;5043658;28;20233;-83
2023/02/18 02:06:31;;;;;;;2.50;2.30;;;;;;;12.07;80.32;96416.00;5049181;28;20224;-83
2023/02/18 02:09:01;;;;;;;2.73;2.47;;;;;;;12.03;80.29;96418.09;5055301;28;20205;-83
2023/02/18 02:11:47;;;;;;;3.00;2.70;;;;;;;12.12;80.17;96411.16;5054689;28;20221;-83
2023/02/18 02:14:27;;;;;;;2.57;2.37;;;;;;;12.10;80.19;96403.59;5053171;28;20221;-83
2023/02/18 02:17:02;;;;;;;2.40;2.20;;;;;;;12.07;80.61;96413.44;5055934;28;20202;-84
2023/02/18 02:19:59;;;;;;;2.90;2.50;;;;;;;12.12;80.48;96400.84;5034657;28;20633;-83
2023/02/18 02:23:09;;;;;;;2.87;2.30;;;;;;;12.20;80.02;96389.66;5033049;28;20216;-83
2023/02/18 02:25:58;;;;;;;3.50;2.47;;;;;;;12.25;79.77;96393.38;5049640;28;20245;-83
2023/02/18 02:28:57;;;;;;;3.47;2.57;;;;;;;12.26;79.57;96383.84;5014271;28;20234;-83
2023/02/18 02:31:55;;;;;;;2.07;1.93;;;;;;;12.25;79.70;96379.66;5042579;28;20648;-83
2023/02/18 02:34:33;;;;;;;2.67;2.40;;;;;;;12.21;80.05;96384.34;5055116;28;20209;-83
2023/02/18 02:37:04;;;;;;;2.83;2.20;;;;;;;12.19;80.30;96399.19;5042310;28;20734;-83
2023/02/18 02:39:37;;;;;;;3.07;2.13;;;;;;;12.17;80.52;96393.38;5049753;28;20281;-83
2023/02/18 02:42:17;;;;;;;2.20;2.00;;;;;;;12.21;80.37;96389.50;5052526;28;20229;-83
2023/02/18 02:44:52;;;;;;;2.17;1.80;;;;;;;12.19;80.80;96377.72;5048510;28;20229;-84
2023/02/18 02:47:26;;;;;;;1.80;1.70;;;;;;;12.24;80.54;96378.03;5034838;28;20278;-83
2023/02/18 02:50:01;;;;;;;2.00;1.80;;;;;;;12.22;80.98;96380.78;5053657;28;20229;-83
2023/02/18 02:52:32;;;;;;;1.87;1.60;;;;;;;12.22;80.88;96387.72;5038236;28;20201;-83
2023/02/18 02:54:58;;;;;;;2.70;2.13;;;;;;;12.26;80.99;96384.66;5034231;28;20232;-83
2023/02/18 02:57:46;;;;;;;1.80;1.70;;;;;;;12.27;80.88;96363.03;5036369;28;20193;-83
2023/02/18 03:00:14;;;;;;;1.80;1.70;;;;;;;12.30;80.75;96370.44;5052192;28;20236;-83
2023/02/18 03:03:04;;;;;;;1.80;1.70;;;;;;;12.25;81.29;96369.31;5046595;28;20221;-83
2023/02/18 03:05:45;;;;;;;1.87;1.77;;;;;;;12.31;81.08;96372.06;5038087;28;20734;-83
2023/02/18 03:08:27;;;;;;;2.27;1.63;;;;;;;12.32;81.27;96371.03;5052729;28;20753;-83
2023/02/18 03:11:00;;;;;;;1.90;1.70;;;;;;;12.30;81.63;96370.44;5051295;28;20237;-83
2023/02/18 03:13:40;;;;;;;2.83;1.50;;;;;;;12.22;82.27;96369.66;5041710;28;20206;-83
2023/02/18 03:16:17;;;;;;;1.77;1.60;;;;;;;12.29;81.78;96362.84;5033348;28;20229;-83
2023/02/18 03:18:48;;;;;;;2.83;1.30;;;;;;;12.30;81.60;96351.56;5040642;28;20232;-83
2023/02/18 03:21:23;;;;;;;2.73;1.53;;;;;;;12.30;81.91;96372.22;5050955;28;20617;-83
2023/02/18 03:23:56;;;;;;;1.43;1.33;;;;;;;12.33;81.77;96358.94;5033074;28;20217;-83
2023/02/18 03:26:25;;;;;;;1.70;1.60;;;;;;;12.39;81.06;96371.19;5044480;28;20229;-83
2023/02/18 03:28:54;;;;;;;1.57;1.47;;;;;;;12.41;80.90;96366.66;5051872;28;20919;-83
2023/02/18 03:31:25;;;;;;;1.40;1.30;;;;;;;12.37;81.14;96366.19;5040167;28;20230;-83
2023/02/18 03:33:56;;;;;;;1.63;1.30;;;;;;;12.33;81.52;96364.91;5018476;28;20233;-83
2023/02/18 03:36:25;;;;;;;1.37;1.27;;;;;;;12.32;81.48;96367.66;5039028;28;20233;-83
2023/02/18 03:38:56;;;;;;;2.43;1.50;;;;;;;12.31;81.50;96358.34;5032946;28;20206;-83
2023/02/18 03:41:22;;;;;;;1.60;1.50;;;;;;;12.36;81.24;96361.19;5036380;28;20226;-83
2023/02/18 03:43:50;;;;;;;1.53;1.43;;;;;;;12.34;81.17;96355.38;5037807;28;20742;-83
2023/02/18 03:46:19;;;;;;;1.93;1.60;;;;;;;12.36;81.03;96350.88;5043200;28;20672;-83
2023/02/18 03:48:46;;;;;;;1.80;1.30;;;;;;;12.25;81.31;96356.41;5033173;28;20749;-83
2023/02/18 03:51:12;;;;;;;1.80;1.40;;;;;;;12.26;81.28;96364.00;5035063;28;20236;-83
2023/02/18 03:53:40;;;;;;;1.40;1.30;;;;;;;12.27;80.95;96363.03;5040187;28;20197;-83
2023/02/18 03:56:07;;;;;;;1.57;1.40;;;;;;;12.16;81.51;96355.63;5036003;28;20230;-83
2023/02/18 03:58:33;;;;;;;1.30;1.20;;;;;;;12.24;80.73;96349.63;5049934;28;20197;-83
2023/02/18 04:01:00;;;;;;;2.07;1.40;;;;;;;12.19;81.26;96357.88;5052448;28;20236;-83
2023/02/18 04:03:26;;;;;;;1.43;1.33;;;;;;;12.19;81.53;96352.72;5052463;28;20213;-83
2023/02/18 04:05:52;;;;;;;1.50;1.40;;;;;;;12.19;81.68;96354.50;5051730;28;20229;-83
2023/02/18 04:08:19;;;;;;;1.60;1.50;;;;;;;12.19;81.85;96360.47;5037709;28;20198;-83
2023/02/18 04:10:47;;;;;;;1.70;1.40;;;;;;;12.24;82.00;96354.78;5032304;28;20388;-83
2023/02/18 04:13:13;;;;;;;1.40;1.30;;;;;;;12.25;81.72;96352.06;5044312;28;20190;-83
2023/02/18 04:15:40;;;;;;;1.90;1.50;;;;;;;12.30;81.61;96362.69;5051554;28;20240;-83
2023/02/18 04:18:06;;;;;;;1.63;1.53;;;;;;;12.42;80.82;96360.53;5039231;28;20198;-83
2023/02/18 04:20:33;;;;;;;1.40;1.30;;;;;;;12.47;80.21;96352.28;5032694;28;20711;-83
2023/02/18 04:22:59;;;;;;;1.90;1.37;;;;;;;12.48;80.17;96361.63;5032359;28;20221;-83
2023/02/18 04:25:26;;;;;;;1.60;1.50;;;;;;;12.41;80.40;96354.56;5031552;28;20645;-83
2023/02/18 04:27:53;;;;;;;1.60;1.50;;;;;;;12.40;80.85;96354.72;5049233;28;20267;-83
2023/02/18 04:30:20;;;;;;;1.40;1.30;;;;;;;12.38;81.15;96346.34;5034818;28;20237;-83
2023/02/18 04:32:47;;;;;;;2.33;1.53;;;;;;;12.38;80.99;96351.50;5031990;28;20580;-83
2023/02/18 04:35:13;;;;;;;1.50;1.40;;;;;;;12.36;81.15;96359.41;5046104;28;20225;-83
2023/02/18 04:37:40;;;;;;;1.50;1.40;;;;;;;12.39;80.59;96358.28;5043135;28;20194;-83
2023/02/18 04:40:08;;;;;;;1.53;1.43;;;;;;;12.42;80.10;96363.91;5032526;28;20226;-83
2023/02/18 04:42:34;;;;;;;1.90;1.73;;;;;;;12.35;80.91;96362.97;5034294;28;20198;-83
2023/02/18 04:45:02;;;;;;;1.63;1.53;;;;;;;12.32;80.70;96359.91;5031618;28;20284;-83
2023/02/18 04:47:29;;;;;;;1.87;1.63;;;;;;;12.29;81.02;96362.84;5045990;28;20193;-83
2023/02/18 04:49:55;;;;;;;1.80;1.70;;;;;;;12.35;80.85;96357.00;5050750;28;20233;-83
2023/02/18 04:52:21;;;;;;;2.13;1.60;;;;;;;12.40;79.83;96359.88;5048680;28;20209;-83
2023/02/18 04:54:48;;;;;;;1.70;1.60;;;;;;;12.39;80.04;96366.03;5045795;28;20229;-83
2023/02/18 04:57:15;;;;;;;2.33;1.60;;;;;;;12.33;80.44;96366.69;5055752;28;20198;-83
2023/02/18 04:59:42;;;;;;;1.70;1.50;;;;;;;12.29;80.50;96379.16;5047284;28;20266;-83
2023/02/18 05:02:09;;;;;;;1.50;1.40;;;;;;;12.31;80.16;96382.38;5055733;28;20713;-83
2023/02/18 05:04:36;;;;;;;1.50;1.40;;;;;;;12.36;79.77;96377.50;5026188;28;20230;-83
2023/02/18 05:07:02;;;;;;;1.40;1.30;;;;;;;12.40;79.61;96381.34;5054739;28;20228;-83
2023/02/18 05:09:29;;;;;;;1.70;1.53;;;;;;;12.36;79.64;96377.50;5057634;28;20197;-84
2023/02/18 05:11:55;;;;;;;1.40;1.20;;;;;;;12.29;80.00;96363.66;5045718;28;20200;-84
2023/02/18 05:14:22;;;;;;;1.50;1.40;;;;;;;12.36;79.70;96359.41;5069644;28;20220;-83
2023/02/18 05:16:48;;;;;;;1.50;1.40;;;;;;;12.32;79.22;96349.59;5034997;28;20205;-84
2023/02/18 05:19:16;;;;;;;1.40;1.30;;;;;;;12.30;79.38;96360.09;5030227;28;20207;-83
2023/02/18 05:21:43;;;;;;;1.57;1.47;;;;;;;12.24;79.49;96360.78;5047832;28;20202;-83
2023/02/18 05:24:09;;;;;;;1.63;1.30;;;;;;;12.25;79.43;96362.38;5051822;28;20221;-83
2023/02/18 05:26:36;;;;;;;1.40;1.30;;;;;;;12.26;79.64;96360.59;5034750;28;20238;-84
2023/02/18 05:29:04;;;;;;;1.30;1.20;;;;;;;12.28;79.06;96338.81;5031546;28;20206;-84
2023/02/18 05:31:30;;;;;;;1.23;1.13;;;;;;;12.22;79.13;96346.41;5045666;28;20233;-83
2023/02/18 05:33:57;;;;;;;1.00;1.00;;;;;;;12.24;79.09;96345.28;5055825;28;20391;-84
2023/02/18 05:36:25;;;;;;;1.10;1.00;;;;;;;12.15;79.07;96343.69;5037900;28;20225;-83
2023/02/18 05:38:51;;;;;;;1.07;1.00;;;;;;;12.14;79.51;96347.25;5039559;28;20248;-83
2023/02/18 05:41:18;;;;;;;1.20;1.10;;;;;;;12.21;79.29;96347.38;5037298;28;20272;-83
2023/02/18 05:46:28;;;;;;;1.47;1.00;;;;;;;12.21;78.82;96350.78;5040323;28;20722;-83
2023/02/18 05:48:55;;;;;;;0.80;0.80;;;;;;;12.17;78.53;96343.53;5052368;28;20209;-83
2023/02/18 05:51:21;;;;;;;2.00;0.90;;;;;;;12.14;78.50;96341.28;5042056;28;20228;-83
2023/02/18 05:53:49;;;;;;;1.93;0.93;;;;;;;12.10;78.53;96348.56;5041398;28;20206;-83
2023/02/18 05:56:16;;;;;;;0.80;0.80;;;;;;;12.17;78.47;96339.16;5046533;28;20232;-83
2023/02/18 05:58:42;;;;;;;0.83;0.83;;;;;;;12.20;78.19;96344.00;5051329;28;20209;-83
2023/02/18 06:01:09;;;;;;;0.83;0.83;;;;;;;12.27;77.69;96342.38;5050834;28;20225;-82
2023/02/18 06:03:35;;;;;;;1.03;0.80;;;;;;;12.20;77.75;96335.44;5041883;28;20241;-83
2023/02/18 06:06:02;;;;;;;0.73;0.73;;;;;;;12.19;77.39;96336.41;5046081;28;20819;-83
2023/02/18 06:08:28;;;;;;;0.90;0.80;;;;;;;12.12;77.64;96344.03;5058332;28;20201;-83
2023/02/18 06:10:56;;;;;;;1.60;0.97;;;;;;;12.19;77.20;96354.50;5041188;28;20479;-83
2023/02/18 06:13:22;;;;;;;0.73;0.73;;;;;;;12.19;76.92;96341.56;5031649;28;20244;-83
2023/02/18 06:15:50;;;;;;;0.80;0.80;;;;;;;12.19;77.55;96355.28;5045494;28;20718;-83
2023/02/18 06:18:17;;;;;;;0.70;0.70;;;;;;;12.12;77.43;96358.72;5045019;28;20641;-83
2023/02/18 06:20:43;;;;;;;0.90;0.90;;;;;;;12.12;77.34;96361.31;5043587;28;20240;-83
2023/02/18 06:23:10;;;;;;;0.80;0.80;;;;;;;12.17;77.31;96357.22;5040055;28;20294;-83
2023/02/18 06:25:36;;;;;;;1.03;0.90;;;;;;;12.18;76.96;96360.63;5046142;28;20221;-83
2023/02/18 06:28:04;;;;;;;0.97;0.87;;;;;;;12.22;76.71;96367.06;5044164;28;20201;-83
2023/02/18 06:30:31;;;;;;;0.70;0.70;;;;;;;12.24;76.54;96368.50;5035938;28;20229;-83
2023/02/18 06:32:57;;;;;;;0.90;0.80;;;;;;;12.17;76.80;96364.97;5050955;28;20252;-83
2023/02/18 06:35:24;;;;;;;1.33;0.90;;;;;;;12.18;76.59;96364.00;5051705;28;20232;-84
2023/02/18 06:37:50;;;;;;;1.10;0.70;;;;;;;12.17;76.17;96369.34;5052760;28;20206;-83
2023/02/18 06:40:17;;;;;;;0.80;0.80;;;;;;;12.17;75.99;96362.41;5051174;28;20237;-84
2023/02/18 06:42:43;;;;;;;0.73;0.73;;;;;;;12.24;75.89;96378.84;5034350;28;20260;-84
2023/02/18 06:45:11;;;;;;;0.80;0.80;;;;;;;12.15;76.28;96366.91;5034305;28;20238;-83
2023/02/18 06:47:38;;;;;;;0.70;0.70;;;;;;;12.22;75.82;96367.06;5019352;28;20247;-84
2023/02/18 06:50:05;;;;;;;0.80;0.80;;;;;;;12.29;74.97;96365.44;5033786;28;20317;-85
2023/02/18 06:52:34;;;;;;;0.70;0.70;;;;;;;12.25;74.97;96362.38;5053385;28;20201;-84
2023/02/18 06:55:01;;;;;;;0.70;0.70;;;;;;;12.28;74.97;96369.78;5053759;28;20252;-83
2023/02/18 06:57:27;;;;;;;1.10;0.83;;;;;;;12.30;74.48;96354.94;5036678;28;20198;-83
2023/02/18 06:59:53;;;;;;;1.10;1.07;;;;;;;12.32;74.64;96349.59;5036614;28;20236;-83
2023/02/18 07:02:21;;;;;;;1.23;0.73;;;;;;;12.20;74.96;96361.25;5033219;28;20202;-84
2023/02/18 07:04:48;;;;;;;1.33;0.70;;;;;;;12.25;75.02;96348.66;5032314;28;20230;-83
2023/02/18 07:07:14;;;;;;;0.83;0.83;;;;;;;12.31;74.45;96351.38;5036552;28;20202;-83
2023/02/18 07:09:41;;;;;;;0.70;0.70;;;;;;;12.36;73.81;96350.88;5040062;28;20264;-83
2023/02/18 07:12:07;;;;;;;0.70;0.70;;;;;;;12.42;73.79;96352.78;5053638;28;20205;-83
2023/02/18 07:14:34;;;;;;;0.80;0.80;;;;;;;12.52;73.51;96355.13;5047569;28;20225;-84
2023/02/18 07:17:00;;;;;;;2.10;0.80;;;;;;;12.48;73.62;96362.44;5038733;28;20236;-84
2023/02/18 07:19:28;;;;;;;0.80;0.80;;;;;;;12.48;73.29;96349.53;5036527;28;20667;-84
2023/02/18 07:21:56;;;;;;;0.60;0.60;;;;;;;12.47;73.08;96350.50;5052591;28;20846;-84
2023/02/18 07:24:23;;;;;;;0.70;0.70;;;;;;;12.37;73.39;96366.19;5048811;28;20214;-84
2023/02/18 07:26:49;;;;;;;0.83;0.70;;;;;;;12.32;73.46;96354.75;5033026;28;20461;-84
2023/02/18 07:29:16;;;;;;;0.60;0.60;;;;;;;12.37;73.23;96355.06;5033558;28;20220;-84
2023/02/18 07:31:42;;;;;;;1.70;0.70;;;;;;;12.44;73.03;96363.75;5034262;28;20225;-84
2023/02/18 07:34:09;;;;;;;3.10;0.80;;;;;;;12.42;72.61;96363.09;5033184;28;20276;-84
2023/02/18 07:36:37;;;;;;;0.80;0.70;;;;;;;12.46;72.71;96364.38;5053304;28;20218;-84
2023/02/18 07:39:03;;;;;;;0.77;0.77;;;;;;;12.51;72.93;96361.31;5038915;28;20225;-84
2023/02/18 07:41:30;;;;;;;0.70;0.70;;;;;;;12.50;72.78;96351.94;5045551;28;20248;-84
2023/02/18 07:43:56;;;;;;;0.67;0.67;;;;;;;12.44;72.81;96349.06;5040666;28;20829;-84
2023/02/18 07:46:23;;;;;;;0.70;0.63;;;;;;;12.40;72.96;96352.94;5040339;28;20225;-84
2023/02/18 07:48:49;;;;;;;0.70;0.70;;;;;;;12.35;73.13;96354.41;5041471;28;20241;-84
2023/02/18 07:51:16;;;;;;;6.20;1.07;;;;;;;12.52;76.72;96355.94;5049948;28;20228;-83
2023/02/18 07:53:44;;;;;;;0.73;0.70;;;;;;;12.58;72.58;96350.09;5043304;28;20233;-84
2023/02/18 07:56:11;;;;;;;1.10;1.00;;;;;;;12.59;72.25;96359.47;5040151;28;20232;-83
2023/02/18 07:58:38;;;;;;;1.03;0.70;;;;;;;12.58;72.52;96344.13;5039446;28;20233;-83
2023/02/18 08:01:06;;;;;;;0.77;0.70;;;;;;;12.53;72.52;96352.38;5053715;28;20585;-83
2023/02/18 08:03:33;;;;;;;1.93;0.80;;;;;;;12.51;72.86;96333.66;5052737;28;20205;-83
2023/02/18 08:06:01;;;;;;;1.03;0.90;;;;;;;12.53;72.62;96343.84;5052782;28;20311;-85
2023/02/18 08:08:30;;;;;;;0.70;0.70;;;;;;;12.55;72.32;96319.44;5052985;28;20227;-82
2023/02/18 08:11:01;;;;;;;0.80;0.80;;;;;;;12.61;72.51;96329.09;5049032;28;20292;-83
2023/02/18 08:13:30;;;;;;;0.90;0.80;;;;;;;12.60;72.57;96317.16;5033484;28;20276;-82
2023/02/18 08:15:57;;;;;;;0.90;0.90;;;;;;;12.64;72.35;96307.28;5052423;28;20590;-82
2023/02/18 08:18:26;;;;;;;0.80;0.80;;;;;;;13.04;70.90;96311.38;5052507;28;20202;-84
2023/02/18 08:20:53;;;;;;;1.00;0.83;;;;;;;13.00;70.58;96313.50;5034111;28;20563;-84
2023/02/18 08:23:20;;;;;;;0.80;0.80;;;;;;;12.96;70.31;96314.00;5033102;28;20209;-84
2023/02/18 08:25:48;;;;;;;1.03;0.90;;;;;;;13.25;69.02;96311.56;5033697;28;20230;-84
2023/02/18 08:28:16;;;;;;;0.80;0.80;;;;;;;13.41;68.33;96292.50;5032899;28;20204;-84
2023/02/18 08:30:44;;;;;;;1.03;0.93;;;;;;;13.62;67.32;96304.75;5043312;28;20245;-84
2023/02/18 08:33:11;;;;;;;0.70;0.70;;;;;;;13.82;66.96;96296.28;5032876;28;20977;-84
2023/02/18 08:35:38;;;;;;;1.23;0.80;;;;;;;14.12;65.24;96289.28;5033430;28;20233;-84
2023/02/18 08:38:04;;;;;;;0.63;0.63;;;;;;;13.71;65.59;96303.66;5059372;28;20332;-84
2023/02/18 08:40:31;;;;;;;2.87;0.90;;;;;;;13.46;66.70;96295.38;5053516;28;20225;-84
2023/02/18 08:42:57;;;;;;;1.00;0.80;;;;;;;13.19;68.33;96283.81;5034594;28;20276;-84
2023/02/18 08:45:25;;;;;;;1.03;0.80;;;;;;;13.02;69.20;96300.41;5052822;28;20351;-84
2023/02/18 08:47:52;;;;;;;1.07;0.80;;;;;;;12.93;70.34;96310.00;5050799;28;20212;-84
2023/02/18 08:50:19;;;;;;;1.63;0.90;;;;;;;12.93;70.65;96294.47;5057524;28;20243;-84
2023/02/18 08:52:46;;;;;;;1.43;0.97;;;;;;;12.98;70.29;96293.97;5049802;28;20221;-84
2023/02/18 08:55:13;;;;;;;2.57;1.00;;;;;;;13.05;70.25;96289.72;5043708;28;20233;-84
2023/02/18 08:57:39;;;;;;;1.77;0.80;;;;;;;13.10;70.55;96292.56;5049390;28;20205;-84
2023/02/18 09:00:07;;;;;;;1.20;0.97;;;;;;;12.97;70.45;96324.19;5043211;28;20291;-84
2023/02/18 09:02:35;;;;;;;1.20;1.00;;;;;;;12.82;70.93;96281.97;5033355;28;20201;-84
2023/02/18 09:05:02;;;;;;;1.17;0.93;;;;;;;12.74;71.02;96276.84;5040394;28;20267;-84
2023/02/18 09:07:29;;;;;;;5.43;3.43;;;;;;;12.83;71.11;96295.69;5037487;28;20217;-84
2023/02/18 09:09:55;;;;;;;1.10;0.93;;;;;;;12.89;70.85;96282.09;5037972;28;20282;-84
2023/02/18 09:12:22;;;;;;;1.20;1.10;;;;;;;13.10;70.05;96287.38;5052462;28;20210;-84
2023/02/18 09:14:48;;;;;;;2.40;0.93;;;;;;;13.10;69.80;96283.03;5047452;28;20222;-84
2023/02/18 09:17:14;;;;;;;1.53;1.10;;;;;;;13.19;69.16;96285.59;5033203;28;20205;-84
2023/02/18 09:19:42;;;;;;;1.20;0.93;;;;;;;13.20;69.36;96282.81;5041581;28;20245;-84
2023/02/18 09:22:09;;;;;;;2.70;1.00;;;;;;;13.07;69.53;96295.53;5058076;28;20255;-84
2023/02/18 09:24:37;;;;;;;5.13;1.30;;;;;;;13.09;69.13;96296.94;5044046;28;20229;-84
2023/02/18 09:27:04;;;;;;;2.92;1.17;;;;;;;12.98;69.60;96296.56;5032692;28;20225;-84
2023/02/18 09:29:34;;;;;;;1.10;0.90;;;;;;;13.10;69.15;96297.72;5038711;28;20578;-84
2023/02/18 09:32:01;;;;;;;1.30;0.90;;;;;;;13.18;69.07;96287.38;5057481;28;20240;-84
2023/02/18 09:34:28;;;;;;;1.60;1.00;;;;;;;13.13;69.15;96300.78;5049435;28;20216;-84
2023/02/18 09:36:55;;;;;;;3.38;1.20;;;;;;;13.25;68.94;96296.03;5036049;28;20574;-84
2023/02/18 09:39:22;;;;;;;1.20;0.90;;;;;;;13.28;68.23;96282.72;5040554;28;20216;-84
2023/02/18 09:41:52;;;;;;;1.93;1.07;;;;;;;13.36;68.23;96280.09;5055782;28;20255;-84
2023/02/18 09:44:22;;;;;;;1.07;0.97;;;;;;;13.49;67.26;96266.53;5055079;28;20208;-84
2023/02/18 09:46:52;;;;;;;1.43;1.07;;;;;;;13.64;66.70;96275.13;5046426;28;20190;-84
2023/02/18 09:49:23;;;;;;;1.67;0.95;;;;;;;13.83;65.72;96255.66;5035563;28;20667;-84
2023/02/18 09:51:50;;;;;;;0.90;0.90;;;;;;;14.12;64.99;96255.59;5045807;28;20899;-84
2023/02/18 09:54:19;;;;;;;2.50;1.00;;;;;;;14.31;64.00;96245.66;5054519;28;20959;-84
2023/02/18 09:56:47;;;;;;;0.80;0.80;;;;;;;14.48;63.42;96253.03;5045746;28;20201;-84
2023/02/18 09:59:18;;;;;;;0.93;0.93;;;;;;;14.78;62.01;96240.78;5055394;28;20681;-83
2023/02/18 10:01:55;;;;;;;2.50;1.00;;;;;;;14.84;61.61;96249.56;5046582;28;20222;-84
2023/02/18 10:04:28;;;;;;;1.65;1.00;;;;;;;15.04;60.44;96253.13;5051654;28;20205;-84
2023/02/18 10:06:56;;;;;;;2.33;1.95;;;;;;;14.92;60.41;96227.91;5041890;28;20208;-84
2023/02/18 10:09:29;;;;;;;1.55;1.45;;;;;;;15.11;60.18;96222.06;5033917;28;20202;-84
2023/02/18 10:11:58;;;;;;;1.80;1.15;;;;;;;15.43;59.34;96226.66;5051959;28;20205;-84
2023/02/18 10:14:25;;;;;;;2.97;1.20;;;;;;;15.60;58.81;96227.19;5059008;28;20568;-84
2023/02/18 10:16:53;;;;;;;2.83;1.20;;;;;;;15.67;58.50;96222.03;5056220;28;20284;-84
2023/02/18 10:19:23;;;;;;;0.90;0.90;;;;;;;15.66;58.04;96210.03;5064342;28;20193;-84
2023/02/18 10:21:52;;;;;;;4.57;1.00;;;;;;;15.61;58.22;96215.00;5065177;28;20204;-84
2023/02/18 10:24:29;;;;;;;1.30;1.20;;;;;;;15.59;58.34;96209.22;5052576;28;20206;-84
2023/02/18 10:26:56;;;;;;;1.02;0.90;;;;;;;15.82;57.80;96205.31;5042313;28;20193;-84
2023/02/18 10:29:24;;;;;;;1.38;1.00;;;;;;;15.74;57.04;96197.72;5044043;28;20189;-84
2023/02/18 10:31:55;;;;;;;2.28;1.05;;;;;;;15.97;56.92;96199.22;5061347;28;20202;-84
2023/02/18 10:34:38;;;;;;;2.10;1.00;;;;;;;15.97;56.07;96204.41;5047771;28;20242;-84
2023/02/18 10:37:09;;;;;;;2.03;0.90;;;;;;;15.92;55.86;96207.56;5045131;28;20216;-84
2023/02/18 10:39:59;;;;;;;1.10;1.00;;;;;;;15.71;55.88;96197.31;5049901;28;20229;-85
2023/02/18 10:42:35;;;;;;;2.75;1.00;;;;;;;15.64;56.39;96194.66;5010663;28;20241;-84
2023/02/18 10:45:13;;;;;;;1.30;1.17;;;;;;;15.58;56.67;96181.66;5031209;28;20742;-84
2023/02/18 10:47:47;;;;;;;1.10;1.00;;;;;;;15.57;56.61;96175.69;5063220;28;20681;-84
2023/02/18 10:50:25;;;;;;;1.85;1.05;;;;;;;15.82;56.57;96168.16;5072199;28;20621;-84
2023/02/18 10:52:55;;;;;;;5.70;4.93;;;;;;;15.94;56.20;96153.66;5050622;28;20208;-85
2023/02/18 10:55:35;;;;;;;3.85;2.75;;;;;;;15.94;56.11;96158.84;5040978;28;20248;-84
2023/02/18 10:58:02;;;;;;;1.10;1.00;;;;;;;15.68;56.00;96162.13;5050210;28;20209;-84
2023/02/18 11:00:35;;;;;;;1.95;0.95;;;;;;;15.59;56.18;96141.75;5036848;28;20237;-85
2023/02/18 11:03:15;;;;;;;4.28;1.15;;;;;;;15.79;55.89;96138.19;5031517;28;20210;-84
2023/02/18 11:05:42;;;;;;;1.85;0.95;;;;;;;15.91;55.84;96130.66;5041426;28;20656;-85
2023/02/18 11:08:14;;;;;;;2.20;0.90;;;;;;;16.03;55.44;96142.06;5038668;28;20237;-84
2023/02/18 11:10:45;;;;;;;1.27;1.02;;;;;;;15.85;55.64;96126.22;5035439;28;20230;-84
2023/02/18 11:13:15;;;;;;;1.08;1.00;;;;;;;15.94;55.52;96119.88;5033338;28;20198;-84
2023/02/18 11:15:55;;;;;;;1.20;1.00;;;;;;;16.07;55.26;96109.50;5036505;28;20326;-84
2023/02/18 11:18:37;;;;;;;1.85;1.20;;;;;;;16.20;55.02;96101.72;5032811;28;20206;-84
2023/02/18 11:21:06;;;;;;;1.38;1.10;;;;;;;16.31;54.83;96110.75;5050235;28;20235;-84
2023/02/18 11:23:46;;;;;;;3.40;0.80;;;;;;;16.37;54.86;96099.53;5053799;28;20208;-84
2023/02/18 11:26:16;;;;;;;3.05;1.00;;;;;;;16.49;54.49;96099.75;5049156;28;20509;-84
2023/02/18 11:28:45;;;;;;;1.73;0.90;;;;;;;16.76;54.20;96100.53;5032988;28;20199;-84
2023/02/18 11:31:20;;;;;;;1.00;0.80;;;;;;;16.81;53.59;96095.53;5042881;28;20236;-84
2023/02/18 11:33:50;;;;;;;1.63;0.80;;;;;;;16.95;53.44;96094.50;5041284;28;20228;-84
2023/02/18 11:36:22;;;;;;;2.08;0.98;;;;;;;17.06;53.24;96099.09;5046185;28;20364;-84
2023/02/18 11:38:52;;;;;;;0.82;0.80;;;;;;;17.03;52.43;96091.69;5037312;28;20219;-84
2023/02/18 11:41:22;;;;;;;1.23;0.90;;;;;;;17.04;52.29;96097.69;5050848;28;20233;-83
2023/02/18 11:43:51;;;;;;;0.90;0.90;;;;;;;16.71;52.55;96103.75;5044466;28;20664;-84
2023/02/18 11:46:21;;;;;;;1.15;0.98;;;;;;;16.63;52.35;96101.34;5034208;28;20229;-85